Time;durP1;ratioP1;P1;durP2;ratioP2;P2;SDS_P1;SDS_P2;PMS_P1;PMS_P2;Temp;Humidity;BMP_temperature;BMP_pressure;BME280_temperature;BME280_humidity;BME280_pressure;Samples;Min_cycle;Max_cycle;Signal;HPM_P1;HPM_P2
2021/04/20 00:00:15;;;;;;;7.20;5.22;;;9.60;1.00;;;;;;5037068;28;20258;-84
2021/04/20 00:02:41;;;;;;;8.93;5.53;;;9.60;1.00;;;;;;5036076;28;20223;-84
2021/04/20 00:05:14;;;;;;;7.55;5.75;;;9.50;1.00;;;;;;5010961;28;20247;-83
2021/04/20 00:07:41;;;;;;;9.40;5.63;;;9.50;1.00;;;;;;5026371;28;20227;-82
2021/04/20 00:10:10;;;;;;;11.30;5.90;;;9.40;1.00;;;;;;5019573;28;20248;-81
2021/04/20 00:12:38;;;;;;;7.95;5.90;;;9.40;1.00;;;;;;5026654;28;20242;-84
2021/04/20 00:15:06;;;;;;;7.25;5.00;;;9.40;1.00;;;;;;5013340;28;20246;-82
2021/04/20 00:17:32;;;;;;;7.90;5.40;;;9.30;1.00;;;;;;5023832;28;20705;-83
2021/04/20 00:19:59;;;;;;;10.48;6.57;;;9.30;1.00;;;;;;5030332;28;20291;-82
2021/04/20 00:22:26;;;;;;;7.15;5.57;;;9.20;1.00;;;;;;5031758;28;20253;-82
2021/04/20 00:24:53;;;;;;;13.60;6.07;;;9.20;1.00;;;;;;5034540;28;20570;-82
2021/04/20 00:27:22;;;;;;;5.97;5.22;;;9.20;1.00;;;;;;5013072;28;20379;-82
2021/04/20 00:29:51;;;;;;;6.32;5.40;;;9.10;1.00;;;;;;5029683;28;20332;-83
2021/04/20 00:32:23;;;;;;;8.48;5.95;;;9.10;1.00;;;;;;5019053;28;20238;-84
2021/04/20 00:34:51;;;;;;;8.23;5.80;;;9.00;1.00;;;;;;5000354;28;20234;-83
2021/04/20 00:37:18;;;;;;;8.30;6.75;;;9.00;1.00;;;;;;5007411;28;20238;-84
2021/04/20 00:39:45;;;;;;;12.25;6.30;;;8.90;1.00;;;;;;5020737;28;20222;-81
2021/04/20 00:42:12;;;;;;;11.65;5.90;;;8.90;1.00;;;;;;5002262;28;20311;-83
2021/04/20 00:44:50;;;;;;;6.88;5.50;;;8.90;1.00;;;;;;5003860;28;21072;-83
2021/04/20 00:47:17;;;;;;;10.55;5.80;;;8.80;1.00;;;;;;5023467;28;21233;-83
2021/04/20 00:49:44;;;;;;;13.40;6.65;;;8.80;1.00;;;;;;5011417;28;20230;-83
2021/04/20 00:52:10;;;;;;;8.07;6.13;;;8.80;1.00;;;;;;5024549;28;20469;-83
2021/04/20 00:54:37;;;;;;;11.50;6.25;;;8.80;1.00;;;;;;5010594;28;20234;-83
2021/04/20 00:57:07;;;;;;;9.77;5.60;;;8.80;1.00;;;;;;5024907;28;20987;-83
2021/04/20 00:59:33;;;;;;;7.95;5.75;;;8.80;1.00;;;;;;5029273;28;20222;-84
2021/04/20 01:02:00;;;;;;;8.73;6.30;;;8.90;1.00;;;;;;5023446;28;20254;-83
2021/04/20 01:04:30;;;;;;;8.40;5.40;;;9.00;1.00;;;;;;5014489;28;21448;-83
2021/04/20 01:07:01;;;;;;;7.88;5.72;;;9.00;1.00;;;;;;5033916;28;20218;-82
2021/04/20 01:09:28;;;;;;;11.32;6.53;;;9.10;1.00;;;;;;5038014;28;20219;-82
2021/04/20 01:11:55;;;;;;;12.70;6.60;;;9.10;1.00;;;;;;5021176;28;20210;-83
2021/04/20 01:14:25;;;;;;;11.52;6.10;;;9.10;1.00;;;;;;5037588;28;20219;-84
2021/04/20 01:16:52;;;;;;;14.15;6.38;;;9.00;1.00;;;;;;5038191;28;20329;-83
2021/04/20 01:19:30;;;;;;;7.28;6.05;;;8.90;1.00;;;;;;5038716;28;20242;-82
2021/04/20 01:21:58;;;;;;;9.40;6.10;;;8.80;1.00;;;;;;5018904;28;20218;-82
2021/04/20 01:24:27;;;;;;;8.25;6.57;;;8.80;1.00;;;;;;5026326;28;20297;-83
2021/04/20 01:26:55;;;;;;;14.20;6.57;;;8.70;1.00;;;;;;5039928;28;21316;-83
2021/04/20 01:29:22;;;;;;;11.05;6.13;;;8.60;1.00;;;;;;5041487;28;20203;-82
2021/04/20 01:31:49;;;;;;;12.13;6.00;;;8.60;1.00;;;;;;5034363;28;20282;-82
2021/04/20 01:34:16;;;;;;;10.00;5.93;;;8.60;1.00;;;;;;5012953;28;20238;-82
2021/04/20 01:36:44;;;;;;;11.90;6.40;;;8.60;1.00;;;;;;5011266;28;20308;-84
2021/04/20 01:39:14;;;;;;;9.52;6.50;;;8.50;1.00;;;;;;5030494;28;20222;-81
2021/04/20 01:41:42;;;;;;;8.38;6.45;;;8.40;1.00;;;;;;5032080;28;21376;-83
2021/04/20 01:44:14;;;;;;;10.63;6.15;;;8.30;1.00;;;;;;5029186;28;20296;-83
2021/04/20 01:46:40;;;;;;;9.32;6.90;;;8.30;1.00;;;;;;5032787;28;20226;-80
2021/04/20 01:49:06;;;;;;;7.72;6.63;;;8.20;1.00;;;;;;5011723;28;20266;-81
2021/04/20 01:51:33;;;;;;;8.57;6.68;;;8.20;1.00;;;;;;5016219;28;20218;-83
2021/04/20 01:54:00;;;;;;;11.50;6.82;;;8.20;1.00;;;;;;5008708;28;20235;-81
2021/04/20 01:56:29;;;;;;;12.15;7.43;;;8.10;1.00;;;;;;5009295;28;20227;-83
2021/04/20 01:59:00;;;;;;;10.25;6.95;;;8.10;1.00;;;;;;5028761;28;20236;-83
2021/04/20 02:01:29;;;;;;;8.07;6.63;;;8.00;1.00;;;;;;5028175;28;20290;-83
2021/04/20 02:03:56;;;;;;;11.10;7.38;;;8.00;1.00;;;;;;5028675;28;20234;-82
2021/04/20 02:06:25;;;;;;;11.80;7.13;;;8.00;1.00;;;;;;5030000;28;20338;-82
2021/04/20 02:08:52;;;;;;;9.13;7.30;;;8.00;1.00;;;;;;5034702;28;20659;-84
2021/04/20 02:11:26;;;;;;;12.68;7.85;;;8.00;1.00;;;;;;5032192;28;20213;-83
2021/04/20 02:13:53;;;;;;;11.15;6.70;;;8.00;1.00;;;;;;5017860;28;20237;-82
2021/04/20 02:16:24;;;;;;;11.45;7.25;;;8.00;1.00;;;;;;5038507;28;20231;-83
2021/04/20 02:18:54;;;;;;;10.10;7.00;;;8.00;1.00;;;;;;5032623;28;20237;-84
2021/04/20 02:21:22;;;;;;;12.98;7.45;;;7.90;1.00;;;;;;5031509;28;20227;-84
2021/04/20 02:23:54;;;;;;;17.35;9.10;;;7.90;1.00;;;;;;5035459;28;20238;-82
2021/04/20 02:26:30;;;;;;;12.65;7.82;;;7.90;1.00;;;;;;5027211;28;20218;-82
2021/04/20 02:28:58;;;;;;;11.38;8.25;;;7.90;1.00;;;;;;5045986;28;20236;-81
2021/04/20 02:31:26;;;;;;;13.57;8.80;;;7.80;1.00;;;;;;5044884;28;20258;-83
2021/04/20 02:33:54;;;;;;;12.25;7.93;;;7.80;1.00;;;;;;5048737;28;20226;-82
2021/04/20 02:36:21;;;;;;;14.43;7.65;;;7.80;1.00;;;;;;5050101;28;20234;-82
2021/04/20 02:38:48;;;;;;;10.63;7.63;;;7.80;1.00;;;;;;5046344;28;20209;-81
2021/04/20 02:41:20;;;;;;;11.18;8.60;;;7.80;1.00;;;;;;5029214;28;20246;-80
2021/04/20 02:43:47;;;;;;;18.05;7.85;;;7.70;1.00;;;;;;5026433;28;20409;-81
2021/04/20 02:46:15;;;;;;;13.15;8.45;;;7.70;1.00;;;;;;5043657;28;20203;-82
2021/04/20 02:48:44;;;;;;;11.40;7.63;;;7.70;1.00;;;;;;5032262;28;20763;-81
2021/04/20 02:51:12;;;;;;;13.23;8.40;;;7.70;1.00;;;;;;5040810;28;20222;-81
2021/04/20 02:53:41;;;;;;;12.23;8.80;;;7.70;1.00;;;;;;5042939;28;20623;-80
2021/04/20 02:56:09;;;;;;;10.35;9.25;;;7.70;1.00;;;;;;5038270;28;20584;-80
2021/04/20 02:58:39;;;;;;;12.70;9.82;;;7.60;1.00;;;;;;5042238;28;20269;-83
2021/04/20 03:01:18;;;;;;;14.13;7.75;;;7.60;1.00;;;;;;5036476;28;20206;-80
2021/04/20 03:03:47;;;;;;;13.68;9.35;;;7.60;1.00;;;;;;5041416;28;20256;-81
2021/04/20 03:06:15;;;;;;;15.23;8.13;;;7.50;1.00;;;;;;5037780;28;20253;-82
2021/04/20 03:08:43;;;;;;;13.93;8.70;;;7.50;1.00;;;;;;5021053;28;20238;-81
2021/04/20 03:11:15;;;;;;;9.40;8.00;;;7.50;1.00;;;;;;5029433;28;20359;-81
2021/04/20 03:13:46;;;;;;;13.75;9.88;;;7.50;1.00;;;;;;5013335;28;20226;-81
2021/04/20 03:16:16;;;;;;;17.73;8.40;;;7.50;1.00;;;;;;5027414;28;20273;-82
2021/04/20 03:18:44;;;;;;;11.75;8.80;;;7.50;1.00;;;;;;5012445;28;20301;-81
2021/04/20 03:21:18;;;;;;;16.38;9.27;;;7.40;1.00;;;;;;5018139;28;20312;-80
2021/04/20 03:23:46;;;;;;;14.13;9.00;;;7.40;1.00;;;;;;5040378;28;20337;-82
2021/04/20 03:26:32;;;;;;;14.95;8.07;;;7.40;1.00;;;;;;5014915;28;20238;-83
2021/04/20 03:29:04;;;;;;;15.38;9.70;;;7.40;1.00;;;;;;5022716;28;20226;-84
2021/04/20 03:31:31;;;;;;;11.20;8.73;;;7.40;1.00;;;;;;5017361;28;20210;-83
2021/04/20 03:34:03;;;;;;;11.35;9.52;;;7.30;1.00;;;;;;5006163;28;20265;-81
2021/04/20 03:36:34;;;;;;;11.82;9.18;;;7.30;1.00;;;;;;5018854;28;20223;-80
2021/04/20 03:39:05;;;;;;;10.88;9.15;;;7.30;1.00;;;;;;5021060;28;20579;-83
2021/04/20 03:41:37;;;;;;;11.15;9.30;;;7.20;1.00;;;;;;5022106;28;20222;-80
2021/04/20 03:44:17;;;;;;;11.43;9.20;;;7.20;1.00;;;;;;5027897;28;20210;-81
2021/04/20 03:46:47;;;;;;;13.88;10.48;;;7.20;1.00;;;;;;5024712;28;20230;-82
2021/04/20 03:49:18;;;;;;;19.30;9.75;;;7.10;1.00;;;;;;5017846;28;20716;-81
2021/04/20 03:51:48;;;;;;;12.98;9.50;;;7.10;1.00;;;;;;5007076;28;20254;-83
2021/04/20 03:54:21;;;;;;;11.38;9.50;;;7.10;1.00;;;;;;5021873;28;20215;-83
2021/04/20 03:56:54;;;;;;;14.48;10.38;;;7.10;1.00;;;;;;5004297;28;20240;-79
2021/04/20 03:59:23;;;;;;;18.08;10.15;;;7.10;1.00;;;;;;5024241;28;20658;-77
2021/04/20 04:01:51;;;;;;;17.35;10.45;;;7.00;1.00;;;;;;5026180;28;20226;-79
2021/04/20 04:04:21;;;;;;;16.75;11.05;;;7.00;1.00;;;;;;5029708;28;20234;-82
2021/04/20 04:06:50;;;;;;;13.20;10.25;;;7.00;1.00;;;;;;5035959;28;20215;-80
2021/04/20 04:09:19;;;;;;;12.00;10.20;;;6.90;1.00;;;;;;5019065;28;20240;-81
2021/04/20 04:11:52;;;;;;;18.27;11.45;;;7.00;1.00;;;;;;5000519;28;20233;-82
2021/04/20 04:14:21;;;;;;;18.50;10.63;;;6.90;1.00;;;;;;5015640;28;21179;-80
2021/04/20 04:16:49;;;;;;;23.20;16.63;;;7.00;1.00;;;;;;5015301;28;20230;-81
2021/04/20 04:19:17;;;;;;;12.88;11.30;;;7.00;1.00;;;;;;5013114;28;20324;-82
2021/04/20 04:21:52;;;;;;;17.35;10.18;;;7.00;1.00;;;;;;4999634;28;20272;-78
2021/04/20 04:24:23;;;;;;;17.35;10.80;;;7.00;1.00;;;;;;5031168;28;20242;-82
2021/04/20 04:26:53;;;;;;;23.42;10.13;;;7.00;1.00;;;;;;5011586;28;20276;-83
2021/04/20 04:29:37;;;;;;;14.40;10.95;;;6.90;1.00;;;;;;5004528;28;20321;-84
2021/04/20 04:32:12;;;;;;;19.30;11.25;;;6.90;1.00;;;;;;5023914;28;20218;-82
2021/04/20 04:34:41;;;;;;;17.10;10.77;;;7.00;1.00;;;;;;5003659;28;20225;-81
2021/04/20 04:37:11;;;;;;;16.35;10.90;;;7.00;1.00;;;;;;5007301;28;20725;-81
2021/04/20 04:39:40;;;;;;;17.55;11.07;;;7.00;1.00;;;;;;5021563;28;20262;-83
2021/04/20 04:42:08;;;;;;;14.32;10.60;;;7.00;1.00;;;;;;5002872;28;21846;-86
2021/04/20 04:44:43;;;;;;;17.50;11.32;;;7.00;1.00;;;;;;5019161;28;20272;-81
2021/04/20 04:47:11;;;;;;;17.75;11.13;;;7.00;1.00;;;;;;5016292;28;20214;-83
2021/04/20 04:49:39;;;;;;;13.65;11.18;;;7.10;1.00;;;;;;5021001;28;20973;-80
2021/04/20 04:52:08;;;;;;;15.85;10.35;;;7.10;1.00;;;;;;5021257;28;20229;-80
2021/04/20 04:54:39;;;;;;;15.40;12.20;;;7.10;1.00;;;;;;5017445;28;20978;-81
2021/04/20 04:57:10;;;;;;;19.67;12.45;;;7.10;1.00;;;;;;5018531;28;20222;-81
2021/04/20 04:59:38;;;;;;;24.52;12.23;;;7.10;1.00;;;;;;5007613;28;20923;-80
2021/04/20 05:02:06;;;;;;;16.83;9.85;;;7.20;1.00;;;;;;5014999;28;20230;-81
2021/04/20 05:04:40;;;;;;;15.55;11.10;;;7.20;1.00;;;;;;5019389;28;20298;-80
2021/04/20 05:07:07;;;;;;;13.70;10.70;;;7.20;1.00;;;;;;5002681;28;20678;-80
2021/04/20 05:09:35;;;;;;;19.20;13.02;;;7.20;1.00;;;;;;5001514;28;20334;-84
2021/04/20 05:12:04;;;;;;;16.80;10.55;;;7.20;1.00;;;;;;5007966;28;20235;-85
2021/04/20 05:14:31;;;;;;;12.38;10.25;;;7.20;1.00;;;;;;5017083;28;20226;-86
2021/04/20 05:17:01;;;;;;;16.85;10.20;;;7.20;1.00;;;;;;5015584;28;20365;-86
2021/04/20 05:19:30;;;;;;;14.27;11.10;;;7.20;1.00;;;;;;5026089;28;20237;-84
2021/04/20 05:22:00;;;;;;;15.85;10.30;;;7.30;1.00;;;;;;5029740;28;20270;-86
2021/04/20 05:24:37;;;;;;;16.63;11.98;;;7.30;1.00;;;;;;5035276;28;20330;-86
2021/04/20 05:27:06;;;;;;;27.88;13.70;;;7.30;1.00;;;;;;5021977;28;20736;-84
2021/04/20 05:29:33;;;;;;;16.92;11.30;;;7.40;1.00;;;;;;5033120;28;20222;-85
2021/04/20 05:32:13;;;;;;;13.23;10.38;;;7.50;1.00;;;;;;5027498;28;20238;-85
2021/04/20 05:34:48;;;;;;;18.70;11.68;;;7.60;1.00;;;;;;5027707;28;20252;-87
2021/04/20 05:37:14;;;;;;;15.85;11.15;;;7.60;1.00;;;;;;5029166;28;20228;-85
2021/04/20 05:39:55;;;;;;;15.35;11.02;;;7.70;1.00;;;;;;5030952;28;20441;-88
2021/04/20 05:45:12;;;;;;;15.95;10.93;;;7.90;1.00;;;;;;5046178;28;20277;-87
2021/04/20 05:47:41;;;;;;;18.75;11.68;;;8.00;1.00;;;;;;5040603;28;20284;-86
2021/04/20 05:50:16;;;;;;;15.77;10.27;;;8.10;1.00;;;;;;5028268;28;20416;-86
2021/04/20 05:52:48;;;;;;;14.20;10.20;;;8.10;1.00;;;;;;5037131;28;20222;-80
2021/04/20 05:55:16;;;;;;;16.92;11.27;;;8.20;1.00;;;;;;5016141;28;20247;-84
2021/04/20 05:57:45;;;;;;;13.32;10.20;;;8.30;1.00;;;;;;5023464;28;20232;-84
2021/04/20 06:00:13;;;;;;;14.88;10.30;;;8.30;1.00;;;;;;5007372;28;20214;-85
2021/04/20 06:02:40;;;;;;;15.57;10.98;;;8.40;1.00;;;;;;5024592;28;20230;-78
2021/04/20 06:05:11;;;;;;;13.88;11.40;;;8.50;1.00;;;;;;4999385;28;20264;-78
2021/04/20 06:07:42;;;;;;;15.73;11.07;;;8.60;1.00;;;;;;5016122;28;20233;-80
2021/04/20 06:10:13;;;;;;;16.48;10.98;;;8.60;1.00;;;;;;5015104;28;20764;-83
2021/04/20 06:12:40;;;;;;;22.38;14.75;;;8.80;1.00;;;;;;5015382;28;20376;-80
2021/04/20 06:15:09;;;;;;;14.02;10.75;;;8.80;1.00;;;;;;5023454;28;20281;-79
2021/04/20 06:17:38;;;;;;;16.23;11.50;;;9.00;1.00;;;;;;5016511;28;20233;-83
2021/04/20 06:20:07;;;;;;;17.95;12.05;;;9.10;1.00;;;;;;5034442;28;20385;-82
2021/04/20 06:22:35;;;;;;;12.98;10.02;;;9.10;1.00;;;;;;5039036;28;20287;-81
2021/04/20 06:25:08;;;;;;;19.85;13.07;;;9.20;1.00;;;;;;5035131;28;20329;-82
2021/04/20 06:27:35;;;;;;;17.95;16.02;;;9.30;1.00;;;;;;5011071;28;20231;-79
2021/04/20 06:30:01;;;;;;;13.38;10.48;;;9.30;1.00;;;;;;5011277;28;20239;-79
2021/04/20 06:32:29;;;;;;;13.73;9.88;;;9.40;1.00;;;;;;5001183;28;20237;-82
2021/04/20 06:34:55;;;;;;;19.40;11.80;;;9.40;1.00;;;;;;4998282;28;20226;-82
2021/04/20 06:37:22;;;;;;;18.30;10.75;;;9.50;1.00;;;;;;5021381;28;20321;-83
2021/04/20 06:39:49;;;;;;;15.20;10.15;;;9.60;1.00;;;;;;5013206;28;20236;-83
2021/04/20 06:42:23;;;;;;;20.83;12.13;;;9.70;1.00;;;;;;5017624;28;20228;-81
2021/04/20 06:44:57;;;;;;;15.00;10.00;;;9.90;1.00;;;;;;5025496;28;20238;-79
2021/04/20 06:47:29;;;;;;;26.00;12.10;;;10.00;1.00;;;;;;5027204;28;20222;-80
2021/04/20 06:50:01;;;;;;;14.18;11.02;;;10.20;1.00;;;;;;5021569;28;20238;-86
2021/04/20 06:52:33;;;;;;;20.88;10.32;;;10.20;1.00;;;;;;5005991;28;20249;-86
2021/04/20 06:55:08;;;;;;;20.20;13.93;;;10.30;1.00;;;;;;5011908;28;21118;-84
2021/04/20 06:57:42;;;;;;;13.40;10.48;;;10.30;1.00;;;;;;5001283;28;20230;-84
2021/04/20 07:00:33;;;;;;;19.30;11.40;;;10.50;1.00;;;;;;5023342;28;20381;-88
2021/04/20 07:03:15;;;;;;;13.52;10.73;;;10.50;1.00;;;;;;5013625;28;20457;-88
2021/04/20 07:05:49;;;;;;;13.63;10.48;;;10.70;1.00;;;;;;5024650;28;20327;-84
2021/04/20 07:08:23;;;;;;;16.98;11.23;;;10.80;1.00;;;;;;5011465;28;20236;-87
2021/04/20 07:10:51;;;;;;;12.63;9.98;;;10.90;1.00;;;;;;5027412;28;20232;-85
2021/04/20 07:13:23;;;;;;;21.27;19.15;;;11.00;1.00;;;;;;5006999;28;20236;-85
2021/04/20 07:15:56;;;;;;;28.13;16.40;;;11.10;1.00;;;;;;5013978;28;20218;-87
2021/04/20 07:19:12;;;;;;;19.03;11.10;;;11.10;1.00;;;;;;5015370;28;20243;-83
2021/04/20 07:21:57;;;;;;;15.23;10.70;;;11.30;1.00;;;;;;5037448;28;20450;-84
2021/04/20 07:24:34;;;;;;;14.17;10.80;;;11.40;1.00;;;;;;5014581;28;20516;-83
2021/04/20 07:27:24;;;;;;;15.10;10.43;;;11.50;1.00;;;;;;5012257;28;20873;-84
2021/04/20 07:30:16;;;;;;;16.67;11.77;;;11.60;1.00;;;;;;5030634;28;20426;-80
2021/04/20 07:33:10;;;;;;;16.67;12.50;;;11.70;1.00;;;;;;5009019;28;20490;-81
2021/04/20 07:35:43;;;;;;;17.87;10.87;;;11.90;1.00;;;;;;5014962;28;20434;-82
2021/04/20 07:38:25;;;;;;;14.17;10.67;;;12.20;1.00;;;;;;5023886;28;20453;-82
2021/04/20 07:41:04;;;;;;;20.43;11.57;;;12.20;1.00;;;;;;5023175;28;20481;-80
2021/04/20 07:43:38;;;;;;;24.43;12.57;;;12.30;1.00;;;;;;5024782;28;20444;-81
2021/04/20 07:46:15;;;;;;;20.80;11.80;;;12.40;1.00;;;;;;5026852;28;20433;-81
2021/04/20 07:48:56;;;;;;;17.27;11.77;;;12.60;1.00;;;;;;5010522;28;20491;-82
2021/04/20 07:51:30;;;;;;;17.63;11.30;;;12.80;1.00;;;;;;5034014;28;20452;-82
2021/04/20 07:54:09;;;;;;;12.63;11.37;;;12.90;1.00;;;;;;5038266;28;20830;-86
2021/04/20 07:56:46;;;;;;;17.40;11.93;;;13.10;1.00;;;;;;5022764;28;20488;-84
2021/04/20 07:59:19;;;;;;;16.80;12.00;;;13.30;1.00;;;;;;5044435;28;20513;-83
2021/04/20 08:01:52;;;;;;;14.20;12.13;;;13.40;1.00;;;;;;5040131;28;20425;-80
2021/04/20 08:04:34;;;;;;;16.33;11.87;;;13.40;1.00;;;;;;5038035;28;20422;-82
2021/04/20 08:07:09;;;;;;;16.47;11.50;;;13.40;1.00;;;;;;5011472;28;20464;-80
2021/04/20 08:09:40;;;;;;;16.00;11.47;;;13.50;1.00;;;;;;5025018;28;20440;-82
2021/04/20 08:12:15;;;;;;;16.53;12.50;;;13.60;1.00;;;;;;5016664;28;20489;-86
2021/04/20 08:14:47;;;;;;;17.10;12.10;;;13.70;1.00;;;;;;5017273;28;20464;-80
2021/04/20 08:17:21;;;;;;;12.57;11.30;;;13.70;1.00;;;;;;5036148;28;20453;-82
2021/04/20 08:19:54;;;;;;;16.97;12.20;;;13.90;1.00;;;;;;5016275;28;20429;-82
2021/04/20 08:22:24;;;;;;;15.53;13.90;;;14.00;1.00;;;;;;5023033;28;20422;-82
2021/04/20 08:25:02;;;;;;;14.97;11.37;;;14.10;1.00;;;;;;5006968;28;20516;-83
2021/04/20 08:27:33;;;;;;;15.40;11.37;;;14.30;1.00;;;;;;5007577;28;21044;-79
2021/04/20 08:30:11;;;;;;;18.30;12.10;;;14.50;1.00;;;;;;5030944;28;20451;-81
2021/04/20 08:32:58;;;;;;;26.47;19.90;;;14.60;1.00;;;;;;5019758;28;20425;-80
2021/04/20 08:35:27;;;;;;;14.30;11.67;;;14.70;1.00;;;;;;5022602;28;20517;-80
2021/04/20 08:38:02;;;;;;;14.40;11.60;;;14.60;1.00;;;;;;5017817;28;20458;-80
2021/04/20 08:40:40;;;;;;;19.77;12.93;;;14.60;1.00;;;;;;5022912;28;20536;-80
2021/04/20 08:43:20;;;;;;;15.70;12.33;;;14.80;1.00;;;;;;5020374;28;20449;-79
2021/04/20 08:45:58;;;;;;;15.77;11.70;;;14.90;1.00;;;;;;4998352;28;20469;-80
2021/04/20 08:48:35;;;;;;;14.60;10.83;;;15.10;1.00;;;;;;5020743;28;20452;-82
2021/04/20 08:51:08;;;;;;;14.00;11.50;;;15.10;1.00;;;;;;5017316;28;20481;-80
2021/04/20 08:53:45;;;;;;;13.80;11.20;;;15.20;1.00;;;;;;5014196;28;20510;-81
2021/04/20 08:56:22;;;;;;;18.03;12.47;;;15.40;1.00;;;;;;4999353;28;20422;-82
2021/04/20 08:59:17;;;;;;;16.47;11.73;;;15.50;1.00;;;;;;5022530;28;20522;-83
2021/04/20 09:01:54;;;;;;;18.67;12.57;;;15.40;1.00;;;;;;5020729;28;20421;-81
2021/04/20 09:04:58;;;;;;;16.47;12.70;;;15.40;1.00;;;;;;5020115;28;20452;-82
2021/04/20 09:07:32;;;;;;;14.00;10.43;;;15.60;1.00;;;;;;5019162;28;20502;-80
2021/04/20 09:10:09;;;;;;;11.63;10.40;;;15.60;1.00;;;;;;5016623;28;20461;-77
2021/04/20 09:12:37;;;;;;;35.43;12.80;;;15.70;1.00;;;;;;4999364;28;20459;-77
2021/04/20 09:15:08;;;;;;;12.07;10.73;;;15.90;1.00;;;;;;5025769;28;20456;-76
2021/04/20 09:17:43;;;;;;;14.40;10.63;;;16.00;1.00;;;;;;5029565;28;21842;-78
2021/04/20 09:20:18;;;;;;;12.37;9.80;;;16.00;1.00;;;;;;5021822;28;20417;-78
2021/04/20 09:22:53;;;;;;;13.80;9.50;;;16.20;1.00;;;;;;5011232;28;21333;-77
2021/04/20 09:25:24;;;;;;;14.20;11.50;;;16.30;1.00;;;;;;5022746;28;21356;-77
2021/04/20 09:28:00;;;;;;;19.80;12.30;;;16.50;1.00;;;;;;5018008;28;21200;-77
2021/04/20 09:30:30;;;;;;;11.20;10.10;;;17.10;1.00;;;;;;5003040;28;20966;-77
2021/04/20 09:33:06;;;;;;;13.80;9.53;;;18.50;1.00;;;;;;5028543;28;20424;-77
2021/04/20 09:35:33;;;;;;;10.60;9.43;;;20.00;1.00;;;;;;5030508;28;21000;-75
2021/04/20 09:38:06;;;;;;;13.13;9.23;;;21.10;1.00;;;;;;5009387;28;20858;-78
2021/04/20 09:40:32;;;;;;;13.27;10.03;;;22.10;1.00;;;;;;5032242;28;20460;-78
2021/04/20 09:43:11;;;;;;;13.33;10.73;;;23.20;1.00;;;;;;5032280;28;20469;-78
2021/04/20 09:45:46;;;;;;;10.77;9.67;;;23.70;1.00;;;;;;5002513;28;20447;-78
2021/04/20 09:48:22;;;;;;;14.07;9.20;;;24.20;1.00;;;;;;5018090;28;20453;-77
2021/04/20 09:50:58;;;;;;;11.10;9.73;;;24.50;1.00;;;;;;5028398;28;20543;-79
2021/04/20 09:53:37;;;;;;;14.40;10.40;;;24.90;1.00;;;;;;5022758;28;20455;-79
2021/04/20 09:56:19;;;;;;;12.40;9.10;;;25.40;1.00;;;;;;5028210;28;20448;-77
2021/04/20 09:58:48;;;;;;;12.30;10.87;;;26.00;1.00;;;;;;5023367;28;20409;-78
2021/04/20 10:01:25;;;;;;;11.27;8.77;;;26.30;1.00;;;;;;5008389;28;20470;-77
2021/04/20 10:03:59;;;;;;;12.73;10.53;;;26.40;1.00;;;;;;5017047;28;20454;-76
2021/04/20 10:06:50;;;;;;;14.70;9.43;;;26.50;1.00;;;;;;5014399;28;20481;-77
2021/04/20 10:09:24;;;;;;;16.07;10.60;;;26.60;1.00;;;;;;5030719;28;20475;-78
2021/04/20 10:12:02;;;;;;;11.60;9.23;;;26.40;1.00;;;;;;5035120;28;20417;-76
2021/04/20 10:14:39;;;;;;;10.70;9.60;;;27.00;1.00;;;;;;5030942;28;20571;-75
2021/04/20 10:17:11;;;;;;;13.40;10.37;;;27.80;1.00;;;;;;5026030;28;20433;-76
2021/04/20 10:19:39;;;;;;;10.90;9.70;;;27.60;1.00;;;;;;5015226;28;21070;-76
2021/04/20 10:22:17;;;;;;;11.17;9.50;;;27.70;1.00;;;;;;5002534;28;20435;-77
2021/04/20 10:24:55;;;;;;;13.60;10.00;;;27.90;1.00;;;;;;5015545;28;20489;-76
2021/04/20 10:27:27;;;;;;;11.73;10.53;;;27.90;1.00;;;;;;5010260;28;20455;-76
2021/04/20 10:30:01;;;;;;;13.40;10.80;;;27.60;1.00;;;;;;5002450;28;20467;-76
2021/04/20 10:32:32;;;;;;;11.13;9.63;;;28.10;1.00;;;;;;5018726;28;20450;-76
2021/04/20 10:34:59;;;;;;;12.83;8.97;;;29.00;1.00;;;;;;5014200;28;21119;-77
2021/04/20 10:37:33;;;;;;;9.80;8.80;;;29.80;1.00;;;;;;5011181;28;20499;-75
2021/04/20 10:40:01;;;;;;;13.23;10.00;;;30.40;1.00;;;;;;4998523;28;21091;-76
2021/04/20 10:42:30;;;;;;;13.67;12.37;;;30.20;1.00;;;;;;5018910;28;20621;-77
2021/04/20 10:44:58;;;;;;;11.60;9.43;;;30.40;1.00;;;;;;5002805;28;20472;-77
2021/04/20 10:47:26;;;;;;;12.80;10.17;;;30.10;1.00;;;;;;5003236;28;20436;-75
2021/04/20 10:49:53;;;;;;;11.83;10.00;;;29.80;1.00;;;;;;5014713;28;20425;-76
2021/04/20 10:52:20;;;;;;;11.43;10.23;;;29.50;1.00;;;;;;5007412;28;21130;-77
2021/04/20 10:54:48;;;;;;;11.20;9.80;;;29.40;1.00;;;;;;5018979;28;20739;-77
2021/04/20 10:57:15;;;;;;;12.10;8.83;;;30.10;1.00;;;;;;5010693;28;20422;-75
2021/04/20 10:59:50;;;;;;;10.73;9.63;;;30.30;1.00;;;;;;5012855;28;20407;-76
2021/04/20 11:02:22;;;;;;;10.97;9.90;;;29.90;1.00;;;;;;5007258;28;20462;-75
2021/04/20 11:04:51;;;;;;;10.93;9.33;;;29.60;1.00;;;;;;5010494;28;20451;-81
2021/04/20 11:07:26;;;;;;;9.93;8.93;;;30.10;1.00;;;;;;5018908;28;21007;-78
2021/04/20 11:09:57;;;;;;;10.90;9.60;;;30.70;1.00;;;;;;5035283;28;20944;-78
2021/04/20 11:12:25;;;;;;;11.63;10.60;;;30.60;1.00;;;;;;5022097;28;20962;-80
2021/04/20 11:14:52;;;;;;;10.83;9.67;;;30.60;1.00;;;;;;5018796;28;20431;-81
2021/04/20 11:17:28;;;;;;;15.17;10.83;;;30.60;1.00;;;;;;5016650;28;20423;-82
2021/04/20 11:20:01;;;;;;;10.90;9.97;;;30.60;1.00;;;;;;5002770;28;20483;-80
2021/04/20 11:22:39;;;;;;;15.47;10.90;;;31.00;1.00;;;;;;5012998;28;20427;-81
2021/04/20 11:25:16;;;;;;;11.70;10.50;;;31.00;1.00;;;;;;5011044;28;20467;-83
2021/04/20 11:27:44;;;;;;;14.80;10.10;;;31.50;1.00;;;;;;5025946;28;20463;-83
2021/04/20 11:30:16;;;;;;;14.57;11.40;;;31.70;1.00;;;;;;5019937;28;20409;-83
2021/04/20 11:32:51;;;;;;;11.13;9.80;;;31.80;1.00;;;;;;5028920;28;20416;-82
2021/04/20 11:35:20;;;;;;;15.43;11.10;;;32.20;1.00;;;;;;5045316;28;20516;-84
2021/04/20 11:37:48;;;;;;;10.57;9.67;;;32.10;1.00;;;;;;5048845;28;20410;-85
2021/04/20 11:40:18;;;;;;;14.60;9.63;;;32.00;1.00;;;;;;5030266;28;20412;-83
2021/04/20 11:42:48;;;;;;;13.80;10.97;;;31.90;1.00;;;;;;5046520;28;20425;-86
2021/04/20 11:45:20;;;;;;;10.17;9.03;;;32.50;1.00;;;;;;5046212;28;20453;-83
2021/04/20 11:48:00;;;;;;;11.90;10.40;;;33.10;1.00;;;;;;5043697;28;20449;-86
2021/04/20 11:50:32;;;;;;;10.63;9.53;;;33.60;1.00;;;;;;5026748;28;20401;-86
2021/04/20 11:53:08;;;;;;;12.37;11.00;;;33.60;1.00;;;;;;5031652;28;20419;-82
2021/04/20 11:55:39;;;;;;;11.37;10.30;;;33.40;1.00;;;;;;5021454;28;20433;-78
2021/04/20 11:58:08;;;;;;;11.93;10.73;;;32.70;1.00;;;;;;5032070;28;20450;-76
2021/04/20 12:00:37;;;;;;;12.70;10.80;;;33.30;1.00;;;;;;5028918;28;20453;-77
2021/04/20 12:03:13;;;;;;;12.53;11.23;;;33.30;1.00;;;;;;5031299;28;20429;-77
2021/04/20 12:05:41;;;;;;;11.70;10.57;;;33.20;1.00;;;;;;5017025;28;22145;-77
2021/04/20 12:08:10;;;;;;;12.30;11.10;;;33.70;1.00;;;;;;5007201;28;20501;-75
2021/04/20 12:10:37;;;;;;;13.10;10.40;;;34.00;1.00;;;;;;5030783;28;20414;-77
2021/04/20 12:13:07;;;;;;;12.50;9.83;;;34.40;1.00;;;;;;5030852;28;20421;-77
2021/04/20 12:15:34;;;;;;;11.13;10.03;;;34.70;1.00;;;;;;5023833;28;20474;-77
2021/04/20 12:18:04;;;;;;;12.10;10.33;;;34.70;1.00;;;;;;5020576;28;20489;-77
2021/04/20 12:20:34;;;;;;;11.17;10.00;;;35.00;1.00;;;;;;5010930;28;21608;-77
2021/04/20 12:23:01;;;;;;;14.07;9.87;;;34.70;1.00;;;;;;5017481;28;20462;-76
2021/04/20 12:25:28;;;;;;;11.70;10.10;;;35.10;1.00;;;;;;5005113;28;20940;-78
2021/04/20 12:27:59;;;;;;;13.50;12.30;;;35.20;1.00;;;;;;5013888;28;20520;-75
2021/04/20 12:30:27;;;;;;;12.60;9.90;;;34.90;1.00;;;;;;5011157;28;20548;-78
2021/04/20 12:32:54;;;;;;;9.90;9.00;;;34.50;1.00;;;;;;4990636;28;20458;-75
2021/04/20 12:35:26;;;;;;;10.67;9.67;;;34.40;1.00;;;;;;5001930;28;20429;-77
2021/04/20 12:37:56;;;;;;;15.67;9.97;;;34.20;1.00;;;;;;5007608;28;20699;-76
2021/04/20 12:40:24;;;;;;;10.37;9.47;;;33.80;1.00;;;;;;5001310;28;20453;-76
2021/04/20 12:42:57;;;;;;;10.83;9.70;;;34.40;1.00;;;;;;5005935;28;20464;-75
2021/04/20 12:45:27;;;;;;;13.47;10.87;;;35.10;1.00;;;;;;5001721;28;20707;-76
2021/04/20 12:47:57;;;;;;;16.07;11.77;;;34.90;1.00;;;;;;5000902;28;20590;-76
2021/04/20 12:50:31;;;;;;;12.10;10.80;;;33.90;1.00;;;;;;5003968;28;21177;-75
2021/04/20 12:53:05;;;;;;;12.17;10.97;;;32.70;1.00;;;;;;5003259;28;21733;-75
2021/04/20 12:55:34;;;;;;;14.97;10.20;;;30.60;1.00;;;;;;5010206;28;20407;-75
2021/04/20 12:58:10;;;;;;;14.63;10.27;;;30.50;1.00;;;;;;5001821;28;20456;-75
2021/04/20 13:00:37;;;;;;;11.70;9.70;;;31.50;1.00;;;;;;5005181;28;20464;-77
2021/04/20 13:03:06;;;;;;;11.73;10.53;;;32.10;1.00;;;;;;4997531;28;20465;-75
2021/04/20 13:05:34;;;;;;;11.73;10.00;;;33.00;1.00;;;;;;5000324;28;20555;-73
2021/04/20 13:08:06;;;;;;;14.77;11.20;;;33.40;1.00;;;;;;4998340;28;21964;-76
2021/04/20 13:10:33;;;;;;;11.97;10.17;;;33.90;1.00;;;;;;4987015;28;20480;-77
2021/04/20 13:13:02;;;;;;;12.63;9.53;;;34.50;1.00;;;;;;5011091;28;20470;-77